Latest Weather Observations for Armidale Airport

IDN60801

Issued at 2:02 am EST Tuesday 31 May 2016 (issued every 30 minutes, with the page automatically refreshed every 10 minutes)

About weather observations | Map of weather stations | Latest weather observations for NSW | Other Formats
Station Details ID: 056238 Name: ARMIDALE AIRPORT AWS Lat: -30.53 Lon: 151.62 Height: 1079.0 m
Data from the previous 72 hours. | See also: Recent months at Armidale Airport
Date/Time
EST
Temp
°C
App
Temp
°C
Dew
Point
Rel
Hum
%
Delta-T
°C
Wind Press
QNH
hPa
Press
MSL
hPa
Rain
since 9 am
mm
Dir
 
Spd
km/h
Gust
km/h
Spd
kts
Gust
kts
31/02:00am 4.6 0.2 4.5 99 0.0 E 17 19 9 10 1026.0 1024.7 0.2
31/01:30am 4.6 -0.3 4.3 98 0.1 E 19 22 10 12 1026.0 1024.7 0.2
31/01:00am 4.6 0.1 4.3 98 0.1 E 17 19 9 10 1026.1 1024.8 0.2
31/12:30am 4.6 0.1 4.3 98 0.1 E 17 20 9 11 1026.1 1024.8 0.2
31/12:00am 3.2 -1.2 2.9 98 0.1 E 15 17 8 9 1026.4 1025.1 0.2
 
Date/Time
EST
Temp
°C
App
Temp
°C
Dew
Point
Rel
Hum
%
Delta-T
°C
Wind Press
QNH
hPa
Press
MSL
hPa
Rain
since 9 am
mm
Dir
 
Spd
km/h
Gust
km/h
Spd
kts
Gust
kts
30/11:30pm 4.2 0.0 3.9 98 0.1 E 15 20 8 11 1026.5 1025.2 0.2
30/11:00pm 4.3 0.1 4.0 98 0.1 E 15 17 8 9 1026.5 1025.2 0.2
30/10:30pm 4.7 0.6 4.4 98 0.1 E 15 19 8 10 1026.5 1025.2 0.2
30/10:00pm 4.0 0.2 3.7 98 0.1 E 13 17 7 9 1026.4 1025.1 0.2
30/09:30pm 4.3 0.5 4.0 98 0.1 E 13 15 7 8 1026.2 1025.0 0.2
30/09:00pm 4.4 0.3 4.1 98 0.1 E 15 17 8 9 1026.1 1024.8 0.2
30/08:30pm 5.1 0.6 4.1 93 0.5 ENE 17 19 9 10 1026.2 1025.0 0.2
30/08:00pm 5.5 1.3 3.7 88 0.8 E 15 17 8 9 1025.7 1024.4 0.2
30/07:30pm 5.6 2.0 2.8 82 1.2 E 11 15 6 8 1025.4 1024.1 0.2
30/07:00pm 6.9 3.5 2.0 71 2.1 E 9 13 5 7 1025.4 1024.1 0.2
30/06:30pm 8.2 5.2 1.8 64 2.8 SE 7 11 4 6 1025.0 1023.7 0.2
30/06:00pm 8.7 5.7 1.8 62 3.0 SE 7 9 4 5 1024.7 1023.4 0.2
30/05:30pm 8.6 5.6 2.2 64 2.9 SE 7 9 4 5 1024.4 1023.0 0.0
30/05:00pm 10.1 7.1 2.0 57 3.6 SW 7 11 4 6 1023.8 1022.5 0.0
30/04:30pm 11.5 7.5 2.8 55 4.0 WSW 13 13 7 7 1023.6 1022.2 0.0
30/04:00pm 12.5 8.3 1.5 47 5.0 W 13 15 7 8 1023.2 1021.9 0.0
30/03:30pm 13.2 8.6 1.5 45 5.4 WSW 15 20 8 11 1023.0 1021.7 0.0
30/03:00pm 13.6 8.9 0.9 42 5.7 W 15 19 8 10 1022.8 1021.4 0.0
30/02:30pm 13.4 8.7 1.1 43 5.6 W 15 20 8 11 1022.6 1021.2 0.0
30/02:00pm 13.9 10.0 1.2 42 5.8 W 11 17 6 9 1022.2 1020.9 0.0
30/01:30pm 13.6 10.0 0.9 42 5.8 WSW 9 15 5 8 1022.5 1021.1 0.0
30/01:00pm 13.8 10.8 0.8 41 5.9 NW 6 11 3 6 1022.6 1021.2 0.0
30/12:30pm 13.1 9.5 0.8 43 5.5 NE 9 13 5 7 1022.8 1021.4 0.0
30/12:00pm 12.4 9.2 0.8 45 5.2 ENE 7 11 4 6 1023.4 1022.0 0.0
30/11:30am 11.6 8.0 0.4 46 4.9 NE 9 13 5 7 1023.8 1022.5 0.0
30/11:00am 10.1 6.6 1.5 55 3.8 ENE 9 13 5 7 1024.0 1022.7 0.0
30/10:30am 8.6 4.6 0.8 58 3.4 NE 11 13 6 7 1024.5 1023.1 0.0
30/10:00am 7.2 3.6 0.9 64 2.7 NE 9 11 5 6 1024.6 1023.3 0.0
30/09:30am 5.6 1.7 1.3 74 1.8 E 11 13 6 7 1024.5 1023.1 0.0
30/09:00am 4.5 1.3 2.8 89 0.7 E 9 11 5 6 1024.0 1022.7 0.0
30/08:30am 2.6 -0.7 2.5 99 0.0 E 9 11 5 6 1023.7 1022.3 0.0
30/08:00am -0.1 -3.3 -0.2 99 0.0 ENE 6 7 3 4 1023.5 1022.1 0.0
30/07:30am -1.7 -5.3 -1.8 99 0.0 ENE 7 9 4 5 1023.5 1022.1 0.0
30/07:00am -3.8 -8.4 -4.1 98 -0.1 ENE 11 13 6 7 1023.1 1021.8 0.0
30/06:33am -4.6 -8.9 -4.9 98 -0.1 ENE 9 11 5 6 1022.7 1021.3 0.0
30/06:30am -4.6 -8.9 -4.9 98 -0.1 ENE 9 11 5 6 1022.7 1021.3 0.0
30/06:00am -4.3 -8.6 -4.4 99 -0.1 ENE 9 11 5 6 1022.4 1021.0 0.0
30/05:44am -3.6 -8.2 -3.7 99 -0.1 NE 11 13 6 7 1022.2 1020.9 0.0
30/05:30am -1.9 -5.9 -2.0 99 -0.1 NE 9 11 5 6 1022.0 1020.6 0.0
30/05:19am -1.2 -4.7 -1.3 99 0.0 NNE 7 7 4 4 1021.9 1020.5 0.0
30/05:00am -2.9 -6.6 -3.0 99 -0.1 N 7 9 4 5 1022.0 1020.6 0.0
30/04:39am -4.9 -9.2 -5.2 98 -0.1 NE 9 13 5 7 1021.8 1020.4 0.0
30/04:30am -4.4 -9.1 -4.7 98 -0.1 ENE 11 13 6 7 1021.7 1020.3 0.0
30/04:25am -4.1 -8.7 -4.2 99 -0.1 ENE 11 13 6 7 1021.7 1020.3 0.0
30/04:02am -2.1 -5.5 -2.2 99 -0.1 NNE 6 9 3 5 1021.6 1020.2 0.0
30/04:00am -1.8 -5.2 -1.9 99 0.0 NNE 6 7 3 4 1021.6 1020.2 0.0
30/03:30am -1.8 -5.4 -1.9 99 -0.1 NNE 7 9 4 5 1021.4 1020.0 0.0
30/03:00am -2.4 -6.4 -2.5 99 -0.1 NE 9 9 5 5 1021.1 1019.7 0.0
30/02:35am -2.0 -6.0 -2.1 99 -0.1 ENE 9 9 5 5 1021.3 1019.8 0.0
30/02:30am -2.1 -5.7 -2.2 99 -0.1 ENE 7 9 4 5 1021.4 1020.0 0.0
30/02:00am -2.3 -6.3 -2.4 99 -0.1 NE 9 11 5 6 1021.5 1020.1 0.0
30/01:30am -3.1 -6.9 -3.4 98 0.0 ENE 7 11 4 6 1021.3 1019.8 0.0
30/01:21am -1.1 -3.3 -1.2 99 0.0 CALM 0 7 0 4 1021.4 1020.0 0.0
30/01:00am 0.1 -1.9 0.0 99 0.0 CALM 0 0 0 0 1021.5 1020.1 0.0
30/12:54am 0.1 -1.9 0.0 99 0.0 CALM 0 0 0 0 1021.6 1020.2 0.0
30/12:35am -0.1 -2.1 -0.2 99 0.0 CALM 0 0 0 0 1021.6 1020.2 0.0
30/12:30am -0.4 -2.5 -0.5 99 0.0 CALM 0 0 0 0 1021.6 1020.2 0.0
30/12:24am 0.0 -2.0 -0.1 99 0.0 CALM 0 0 0 0 1021.5 1020.1 0.0
30/12:00am -0.6 -3.8 -0.7 99 0.0 N 6 7 3 4 1021.6 1020.2 0.0
 
Date/Time
EST
Temp
°C
App
Temp
°C
Dew
Point
Rel
Hum
%
Delta-T
°C
Wind Press
QNH
hPa
Press
MSL
hPa
Rain
since 9 am
mm
Dir
 
Spd
km/h
Gust
km/h
Spd
kts
Gust
kts
29/11:53pm -0.2 -3.6 -0.3 99 0.0 N 7 7 4 4 1021.7 1020.3 0.0
29/11:30pm -0.5 -3.7 -0.8 98 0.1 NE 6 9 3 5 1021.8 1020.4 0.0
29/11:00pm -0.3 -3.1 -0.6 98 0.1 NNE 4 7 2 4 1021.9 1020.5 0.0
29/10:30pm 0.7 -1.2 0.4 98 0.1 CALM 0 0 0 0 1021.8 1020.4 0.0
29/10:00pm 0.8 -2.2 0.5 98 0.1 NW 6 7 3 4 1022.0 1020.6 0.0
29/09:30pm 0.5 -2.9 -0.4 94 0.3 W 7 11 4 6 1022.0 1020.6 0.0
29/09:00pm 1.8 -1.3 1.4 97 0.2 WSW 7 11 4 6 1021.8 1020.4 0.0
29/08:30pm 2.2 0.5 1.9 98 0.1 CALM 0 0 0 0 1021.8 1020.4 0.0
29/08:00pm 1.5 -1.9 -0.3 88 0.7 W 7 11 4 6 1021.8 1020.4 0.0
29/07:30pm 2.1 -2.7 0.5 89 0.6 WSW 15 19 8 10 1021.6 1020.2 0.0
29/07:00pm 2.9 -0.6 1.0 87 0.8 WSW 9 9 5 5 1021.4 1020.0 0.0
29/06:30pm 2.6 -0.7 0.3 85 0.9 WNW 7 11 4 6 1021.0 1019.6 0.0
29/06:00pm 3.9 -0.1 0.6 79 1.4 WSW 11 15 6 8 1020.5 1019.1 0.0
29/05:30pm 5.6 1.0 1.5 75 1.8 WSW 15 19 8 10 1020.0 1018.6 0.0
29/05:00pm 6.7 2.1 1.8 71 2.1 W 15 20 8 11 1019.9 1018.5 0.0
29/04:30pm 8.2 2.6 1.1 61 3.1 W 20 26 11 14 1019.5 1018.0 0.0
29/04:00pm 9.1 3.7 1.5 59 3.3 W 19 24 10 13 1019.3 1017.8 0.0
29/03:30pm 9.9 3.7 2.3 59 3.4 W 24 28 13 15 1018.7 1017.2 0.0
29/03:00pm 9.7 3.4 1.4 56 3.7 W 24 32 13 17 1018.7 1017.2 0.0
29/02:30pm 9.6 3.3 1.5 57 3.6 W 24 30 13 16 1018.5 1017.0 0.0
29/02:00pm 9.8 3.7 2.6 61 3.3 WSW 24 30 13 16 1018.4 1016.9 0.0
29/01:30pm 9.7 3.7 3.2 64 3.0 W 24 30 13 16 1018.1 1016.7 0.0
29/01:00pm 9.1 3.8 2.9 65 2.8 W 20 28 11 15 1018.4 1016.9 0.0
29/12:30pm 8.5 2.8 2.7 67 2.6 WNW 22 30 12 16 1018.5 1017.0 0.0
29/12:00pm 8.2 3.2 3.5 72 2.2 W 19 26 10 14 1018.7 1017.2 0.0
29/11:30am 7.4 2.0 2.7 72 2.1 WNW 20 28 11 15 1018.8 1017.3 0.0
29/11:07am 6.7 2.0 3.0 77 1.7 W 17 26 9 14 1019.3 1017.8 0.0
29/11:00am 6.6 1.5 2.9 77 1.6 W 19 24 10 13 1019.3 1017.8 0.0
29/10:30am 6.1 1.1 3.4 83 1.2 WSW 19 26 10 14 1019.5 1018.0 0.0
29/10:00am 5.3 0.2 3.3 87 0.9 W 19 24 10 13 1020.0 1018.6 0.0
29/09:30am 4.6 -0.4 3.4 92 0.5 W 19 24 10 13 1020.0 1018.6 0.0
29/09:00am 4.3 -0.8 3.1 92 0.5 W 19 22 10 12 1019.8 1018.4 4.2
29/08:30am 3.9 -1.1 3.6 98 0.1 W 19 24 10 13 1019.4 1017.9 4.2
29/08:00am 3.7 -1.3 3.4 98 0.1 W 19 28 10 15 1019.1 1017.7 4.2
29/07:30am 3.5 -1.2 3.2 98 0.1 W 17 24 9 13 1018.6 1017.1 4.2
29/07:00am 3.2 -1.9 2.9 98 0.1 W 19 28 10 15 1018.0 1016.6 4.2
29/06:30am 3.4 -1.7 3.1 98 0.1 W 19 24 10 13 1017.6 1016.1 4.2
29/06:00am 3.5 -1.2 3.2 98 0.1 W 17 24 9 13 1017.5 1016.0 4.2
29/05:30am 3.6 -2.4 3.3 98 0.1 W 24 30 13 16 1016.9 1015.4 4.2
29/05:00am 3.7 -2.3 3.4 98 0.1 W 24 32 13 17 1016.8 1015.3 4.0
29/04:30am 3.7 -2.7 3.4 98 0.1 W 26 33 14 18 1016.4 1014.8 4.0
29/04:02am 3.7 -2.7 3.4 98 0.1 W 26 33 14 18 1016.4 1014.8 4.0
29/04:00am 3.7 -2.6 3.6 99 0.0 W 26 32 14 17 1016.4 1014.8 4.0
29/03:41am 3.7 -1.9 3.4 98 0.1 W 22 28 12 15 1016.3 1014.7 4.0
29/03:30am 3.7 -3.4 3.4 98 0.1 W 30 35 16 19 1016.1 1014.6 4.0
29/03:00am 3.9 -3.6 3.6 98 0.1 W 32 46 17 25 1015.9 1014.4 4.0
29/02:40am 3.8 -2.9 3.5 98 0.1 W 28 37 15 20 1015.7 1014.2 4.0
29/02:30am 3.8 -2.9 3.7 99 0.0 W 28 35 15 19 1015.7 1014.2 4.0
29/02:17am 3.7 -3.0 3.6 99 0.0 W 28 35 15 19 1015.7 1014.2 4.0
29/02:00am 3.7 -4.0 3.6 99 0.0 W 33 44 18 24 1015.6 1014.1 4.0
29/01:30am 4.2 -2.4 4.1 99 0.0 W 28 37 15 20 1015.5 1013.9 4.0
29/01:00am 4.2 -1.7 4.1 99 0.0 W 24 33 13 18 1015.4 1013.8 3.8
29/12:46am 4.2 -2.0 4.1 99 0.0 WNW 26 35 14 19 1015.4 1013.8 3.8
29/12:32am 4.3 -1.2 4.2 99 0.0 WNW 22 30 12 16 1015.4 1013.8 3.8
29/12:30am 4.3 -1.6 4.0 98 0.1 WNW 24 32 13 17 1015.4 1013.8 3.8
29/12:23am 4.4 -1.5 4.1 98 0.1 WNW 24 33 13 18 1015.4 1013.8 3.8
29/12:00am 4.2 -1.7 4.1 99 0.0 W 24 32 13 17 1015.6 1014.1 3.8
 
Date/Time
EST
Temp
°C
App
Temp
°C
Dew
Point
Rel
Hum
%
Delta-T
°C
Wind Press
QNH
hPa
Press
MSL
hPa
Rain
since 9 am
mm
Dir
 
Spd
km/h
Gust
km/h
Spd
kts
Gust
kts
28/11:35pm 4.3 -1.5 4.2 99 0.0 W 24 32 13 17 1015.6 1014.1 3.6
28/11:30pm 4.2 -1.7 4.1 99 0.0 W 24 32 13 17 1015.5 1013.9 3.6
28/11:15pm 4.3 -1.9 4.2 99 0.0 W 26 33 14 18 1015.5 1013.9 3.6
28/11:00pm 4.3 -2.3 4.0 98 0.1 W 28 35 15 19 1015.6 1014.1 3.6
28/10:30pm 4.3 -2.0 4.0 98 0.1 W 26 35 14 19 1015.6 1014.1 3.6
28/10:00pm 4.3 -2.7 4.2 99 0.0 W 30 39 16 21 1015.4 1013.8 3.6
28/09:35pm 4.2 -3.2 4.1 99 0.0 W 32 44 17 24 1015.3 1013.7 3.4
28/09:30pm 4.2 -3.4 4.1 99 0.0 W 33 44 18 24 1015.3 1013.7 3.4
28/09:00pm 4.2 -2.4 4.1 99 0.0 W 28 43 15 23 1014.9 1013.4 3.4
28/08:42pm 4.4 -2.6 4.3 99 0.0 WNW 30 39 16 21 1014.8 1013.3 3.4
28/08:30pm 4.4 -3.5 4.3 99 0.0 WNW 35 46 19 25 1014.6 1013.0 3.4
28/08:18pm 4.4 -3.5 4.1 98 0.1 WNW 35 50 19 27 1014.3 1012.7 3.4
28/08:09pm 4.4 -3.0 4.1 98 0.1 WNW 32 50 17 27 1014.0 1012.5 3.4
28/08:00pm 4.3 -3.3 4.0 98 0.1 WNW 33 46 18 25 1014.0 1012.5 3.4
28/07:30pm 4.3 -4.4 4.0 98 0.1 W 39 52 21 28 1013.6 1012.0 3.4
28/07:00pm 4.7 -2.8 4.4 98 0.1 W 33 43 18 23 1013.4 1011.8 3.4
28/06:38pm 4.7 -3.2 4.3 97 0.2 W 35 54 19 29 1013.5 1011.9 3.4
28/06:30pm 4.9 -3.3 4.6 98 0.1 WNW 37 54 20 29 1013.0 1011.4 3.4
28/06:00pm 4.7 -3.2 4.4 98 0.1 WNW 35 50 19 27 1012.8 1011.2 3.4
28/05:42pm 4.7 -2.8 4.4 98 0.1 WNW 33 50 18 27 1012.6 1011.0 3.4
28/05:39pm 4.8 -2.5 4.5 98 0.1 W 32 50 17 27 1012.5 1010.9 3.4
28/05:30pm 4.6 -2.7 4.3 98 0.1 W 32 46 17 25 1012.6 1011.0 3.4
28/05:29pm 4.6 -2.7 4.3 98 0.1 W 32 46 17 25 1012.6 1011.0 3.4
28/05:00pm 4.7 -3.2 4.4 98 0.1 W 35 43 19 23 1012.1 1010.5 3.2
28/04:47pm 4.5 -3.0 4.2 98 0.1 W 33 44 18 24 1011.9 1010.3 3.2
28/04:35pm 4.4 -3.5 4.1 98 0.1 W 35 48 19 26 1011.8 1010.2 3.2
28/04:31pm 4.4 -4.3 4.1 98 0.1 W 39 57 21 31 1011.7 1010.1 3.2
28/04:30pm 4.5 -4.6 4.2 98 0.1 W 41 57 22 31 1011.7 1010.1 3.2
28/04:14pm 5.0 -4.6 3.2 88 0.8 W 43 67 23 36 1011.0 1009.4 2.4
28/04:06pm 6.3 -2.8 1.6 72 2.0 W 39 67 21 36 1010.6 1008.9 2.4
28/04:00pm 7.1 -1.8 1.0 65 2.6 WNW 37 52 20 28 1010.3 1008.6 2.4
28/03:30pm 7.3 -1.4 1.8 68 2.4 WNW 37 59 20 32 1009.8 1008.1 2.4
28/03:00pm 7.2 -2.4 1.3 66 2.6 WNW 41 63 22 34 1009.5 1007.8 2.4
28/02:37pm 6.5 -1.8 2.4 75 1.8 WNW 35 56 19 30 1009.4 1007.7 2.4
28/02:30pm 6.1 -1.7 3.1 81 1.3 WNW 33 46 18 25 1009.4 1007.7 2.4
28/02:09pm 6.0 -2.3 4.2 88 0.8 WNW 37 56 20 30 1009.3 1007.6 1.8
28/02:08pm 6.1 -2.7 3.6 84 1.1 WNW 39 56 21 30 1009.3 1007.6 1.8
28/02:00pm 8.0 -1.3 2.7 69 2.4 WNW 41 59 22 32 1008.9 1007.2 1.6
28/01:38pm 8.2 -0.3 3.3 71 2.2 NW 37 56 20 30 1008.8 1007.1 1.6
28/01:30pm 8.3 -0.4 3.9 74 2.0 WNW 39 54 21 29 1008.9 1007.2 1.6
28/01:00pm 7.8 -1.7 4.9 82 1.4 WNW 44 67 24 36 1009.1 1007.5 1.6
28/12:55pm 7.5 -1.9 5.6 88 0.9 WNW 44 67 24 36 1009.1 1007.5 1.6
28/12:46pm 6.7 -1.8 5.0 89 0.8 WNW 39 54 21 29 1009.1 1007.5 1.6
28/12:30pm 6.1 -2.7 5.4 95 0.3 WNW 41 52 22 28 1009.4 1007.7 1.4
28/12:25pm 6.1 -2.5 4.6 90 0.7 WNW 39 52 21 28 1009.4 1007.7 0.8
28/12:13pm 7.9 0.0 4.1 77 1.8 NW 35 59 19 32 1009.1 1007.5 0.8
28/12:00pm 7.3 -1.0 4.3 81 1.4 NW 37 52 20 28 1009.3 1007.6 0.8
28/11:51am 7.0 -1.3 4.1 82 1.3 WNW 37 54 20 29 1009.5 1007.8 0.8
28/11:47am 7.1 -0.5 3.9 80 1.5 WNW 33 54 18 29 1009.6 1007.9 0.8
28/11:30am 7.9 1.1 6.8 93 0.5 WNW 32 43 17 23 1009.9 1008.3 0.8
28/11:00am 6.1 -1.9 5.8 98 0.1 WNW 37 48 20 26 1010.4 1008.7 0.8
28/10:59am 6.2 -1.8 5.9 98 0.1 WNW 37 48 20 26 1010.5 1008.8 0.8
28/10:36am 6.2 -1.0 5.8 97 0.2 WNW 33 48 18 26 1010.8 1009.2 0.2
28/10:34am 6.2 -0.9 5.3 94 0.4 WNW 32 48 17 26 1010.7 1009.1 0.2
28/10:30am 6.5 -0.9 5.1 91 0.7 NW 33 41 18 22 1010.7 1009.1 0.0
28/10:00am 7.4 -0.8 4.9 84 1.2 WNW 37 46 20 25 1011.0 1009.4 0.0
28/09:50am 7.1 -1.2 4.1 81 1.4 WNW 37 59 20 32 1011.0 1009.4 0.0
28/09:30am 8.1 0.2 4.3 77 1.8 WNW 35 48 19 26 1011.3 1009.6 0.0
28/09:00am 8.1 1.6 4.5 78 1.7 NW 28 37 15 20 1010.9 1009.3 0.2
28/08:30am 6.8 0.6 4.3 84 1.2 NW 26 37 14 20 1011.3 1009.6 0.2
28/08:00am 6.0 0.5 3.8 86 1.0 WNW 22 30 12 16 1011.3 1009.6 0.2
28/07:30am 4.9 -0.4 3.2 89 0.8 WNW 20 28 11 15 1011.3 1009.6 0.2
28/07:00am 4.2 -1.5 2.7 90 0.7 NW 22 30 12 16 1011.1 1009.5 0.2
28/06:30am 4.0 -1.7 2.7 91 0.6 WNW 22 33 12 18 1011.0 1009.4 0.2
28/06:00am 3.8 -1.5 2.8 93 0.4 NW 20 30 11 16 1010.6 1008.9 0.2
28/05:30am 3.6 -1.6 2.6 93 0.4 WNW 19 24 10 13 1010.8 1009.2 0.2
28/05:00am 3.5 -1.2 2.9 96 0.3 WNW 17 22 9 12 1010.7 1009.1 0.2
28/04:30am 3.9 -0.7 3.6 98 0.1 WNW 17 24 9 13 1010.8 1009.2 0.2
28/04:00am 4.0 -0.6 3.7 98 0.1 WNW 17 24 9 13 1011.1 1009.5 0.2
28/03:30am 3.7 -0.2 3.4 98 0.1 WNW 13 19 7 10 1011.4 1009.7 0.2
28/03:00am 3.6 -0.3 3.3 98 0.1 WNW 13 19 7 10 1011.5 1009.8 0.2
28/02:30am 3.7 -1.0 3.4 98 0.1 WNW 17 22 9 12 1011.7 1010.1 0.2
28/02:16am 3.6 -0.7 3.3 98 0.1 WNW 15 20 8 11 1011.9 1010.3 0.2

Other Formats:

Comma delimited format used in spreadsheet applications
http://www.bom.gov.au/fwo/IDN60801/IDN60801.95773.axf

JavaScript Object Notation format (JSON) in row-major order
http://www.bom.gov.au/fwo/IDN60801/IDN60801.95773.json